Terminal Aerodrome Forecast
Issued by NWS

Home | Current Version | Previous Version | Text Only | Print | Product List | Glossary On
Versions: 1 2 3 4 5 6 7 8 9 10 11 12 13
281
FTUS44 KEPZ 232335
TAFLRU
TAF
KLRU 232335Z 2400/2424 25008G17KT P6SM FEW120 FEW250
     FM240300 VRB04KT P6SM FEW250
     FM241300 19005KT P6SM SCT250
     FM242000 22007G18KT P6SM SCT250=

USA.gov is the U.S. government's official web portal to all federal, state and local government web resources and services.